Time;durP1;ratioP1;P1;durP2;ratioP2;P2;SDS_P1;SDS_P2;PMS_P1;PMS_P2;Temp;Humidity;BMP_temperature;BMP_pressure;BME280_temperature;BME280_humidity;BME280_pressure;Samples;Min_cycle;Max_cycle;Signal;HPM_P1;HPM_P2
2022/10/01 00:01:23;;;;;;;7.63;2.88;;;;;;;;;;5058018;28;20089;-80
2022/10/01 00:03:50;;;;;;;7.47;3.03;;;;;;;;;;5060865;28;20017;-80
2022/10/01 00:06:17;;;;;;;5.10;2.67;;;;;;;;;;5062640;28;20021;-80
2022/10/01 00:08:48;;;;;;;6.63;2.63;;;;;;;;;;5062689;28;20034;-80
2022/10/01 00:11:21;;;;;;;7.85;3.28;;;;;;;;;;5060479;28;20380;-79
2022/10/01 00:13:47;;;;;;;8.35;2.70;;;;;;;;;;5058943;28;20020;-81
2022/10/01 00:16:15;;;;;;;6.93;2.80;;;;;;;;;;5061224;28;20028;-82
2022/10/01 00:18:44;;;;;;;8.50;3.50;;;;;;;;;;5063160;28;20095;-80
2022/10/01 00:21:15;;;;;;;7.45;3.08;;;;;;;;;;5061848;28;20120;-80
2022/10/01 00:23:41;;;;;;;8.17;3.03;;;;;;;;;;5065272;28;20403;-79
2022/10/01 00:26:19;;;;;;;7.28;2.95;;;;;;;;;;5047336;28;20782;-79
2022/10/01 00:28:46;;;;;;;12.63;3.40;;;;;;;;;;5053196;28;20020;-81
2022/10/01 00:31:13;;;;;;;12.77;3.30;;;;;;;;;;5064087;28;20025;-79
2022/10/01 00:33:39;;;;;;;7.78;3.40;;;;;;;;;;5064165;28;20024;-82
2022/10/01 00:36:06;;;;;;;9.15;3.55;;;;;;;;;;5065091;28;20128;-80
2022/10/01 00:38:33;;;;;;;8.13;3.22;;;;;;;;;;5059306;28;20023;-81
2022/10/01 00:41:00;;;;;;;7.10;2.90;;;;;;;;;;5064112;28;20020;-82
2022/10/01 00:43:31;;;;;;;12.35;3.33;;;;;;;;;;5058830;28;20648;-79
2022/10/01 00:46:00;;;;;;;7.55;2.65;;;;;;;;;;5059303;28;20039;-82
2022/10/01 00:48:28;;;;;;;9.43;2.80;;;;;;;;;;5062259;28;20053;-82
2022/10/01 00:50:54;;;;;;;7.80;2.80;;;;;;;;;;5060569;28;20025;-80
2022/10/01 00:53:21;;;;;;;7.80;2.85;;;;;;;;;;5064144;28;20020;-82
2022/10/01 00:55:54;;;;;;;7.60;3.33;;;;;;;;;;5061017;28;20013;-79
2022/10/01 00:58:20;;;;;;;8.73;2.95;;;;;;;;;;5058282;28;21394;-81
2022/10/01 01:00:50;;;;;;;12.40;2.92;;;;;;;;;;5061411;28;20027;-79
2022/10/01 01:03:17;;;;;;;12.20;3.22;;;;;;;;;;5062889;28;20016;-79
2022/10/01 01:05:45;;;;;;;11.88;3.53;;;;;;;;;;5061983;28;20013;-81
2022/10/01 01:08:11;;;;;;;7.25;2.83;;;;;;;;;;5062304;28;20036;-80
2022/10/01 01:10:55;;;;;;;12.32;3.03;;;;;;;;;;5061872;28;20020;-80
2022/10/01 01:13:22;;;;;;;11.48;2.67;;;;;;;;;;5057622;28;20082;-79
2022/10/01 01:15:54;;;;;;;7.05;2.83;;;;;;;;;;5066392;28;20032;-81
2022/10/01 01:18:23;;;;;;;9.02;2.58;;;;;;;;;;5048664;28;20539;-80
2022/10/01 01:21:02;;;;;;;8.75;2.95;;;;;;;;;;5062969;28;20020;-79
2022/10/01 01:23:55;;;;;;;8.63;2.70;;;;;;;;;;5062735;28;20059;-80
2022/10/01 01:26:24;;;;;;;6.18;2.83;;;;;;;;;;5044202;28;20150;-82
2022/10/01 01:28:53;;;;;;;7.50;2.70;;;;;;;;;;5065236;28;20024;-80
2022/10/01 01:31:26;;;;;;;9.35;3.20;;;;;;;;;;5061992;28;20086;-82
2022/10/01 01:33:54;;;;;;;8.82;3.00;;;;;;;;;;5059606;28;20031;-82
2022/10/01 01:36:25;;;;;;;6.53;3.05;;;;;;;;;;5045714;28;20037;-80
2022/10/01 01:38:53;;;;;;;8.52;3.15;;;;;;;;;;5060379;28;20080;-79
2022/10/01 01:41:21;;;;;;;13.90;3.75;;;;;;;;;;5062402;28;20024;-79
2022/10/01 01:43:50;;;;;;;6.38;3.30;;;;;;;;;;5061736;28;20024;-80
2022/10/01 01:46:17;;;;;;;8.25;2.97;;;;;;;;;;5061623;28;20044;-79
2022/10/01 01:48:46;;;;;;;16.70;3.55;;;;;;;;;;5061117;28;20032;-80
2022/10/01 01:51:45;;;;;;;9.73;3.45;;;;;;;;;;5063610;28;20407;-80
2022/10/01 01:54:11;;;;;;;8.55;3.17;;;;;;;;;;5029164;28;20484;-79
2022/10/01 01:56:37;;;;;;;8.18;3.35;;;;;;;;;;5061376;28;20063;-80
2022/10/01 01:59:04;;;;;;;13.00;4.45;;;;;;;;;;5056195;28;20021;-79
2022/10/01 02:01:34;;;;;;;9.65;3.60;;;;;;;;;;5061318;28;20055;-80
2022/10/01 02:04:03;;;;;;;8.18;3.90;;;;;;;;;;5026977;28;20655;-80
2022/10/01 02:06:39;;;;;;;7.85;3.10;;;;;;;;;;5061535;28;20027;-79
2022/10/01 02:09:29;;;;;;;6.20;3.00;;;;;;;;;;5059963;28;20036;-80
2022/10/01 02:12:06;;;;;;;8.88;3.50;;;;;;;;;;5048121;28;20044;-81
2022/10/01 02:14:38;;;;;;;19.00;3.70;;;;;;;;;;5059184;28;20022;-79
2022/10/01 02:17:12;;;;;;;5.95;3.22;;;;;;;;;;5060504;28;20081;-80
2022/10/01 02:19:39;;;;;;;8.38;3.13;;;;;;;;;;5058262;28;20074;-80
2022/10/01 02:22:12;;;;;;;9.13;2.83;;;;;;;;;;5044447;28;20400;-79
2022/10/01 02:24:38;;;;;;;11.57;3.47;;;;;;;;;;5046926;28;20495;-79
2022/10/01 02:27:10;;;;;;;7.82;3.25;;;;;;;;;;5060847;28;20048;-79
2022/10/01 02:29:37;;;;;;;10.45;3.45;;;;;;;;;;5061904;28;20078;-79
2022/10/01 02:32:03;;;;;;;11.38;3.72;;;;;;;;;;5060563;28;20029;-79
2022/10/01 02:34:30;;;;;;;9.90;3.58;;;;;;;;;;5039799;28;20511;-79
2022/10/01 02:36:58;;;;;;;8.40;3.50;;;;;;;;;;5060521;28;20089;-79
2022/10/01 02:39:27;;;;;;;11.05;3.30;;;;;;;;;;5041189;28;20392;-79
2022/10/01 02:41:53;;;;;;;8.35;2.95;;;;;;;;;;5056157;28;20024;-79
2022/10/01 02:44:23;;;;;;;7.38;3.17;;;;;;;;;;5060109;28;20532;-79
2022/10/01 02:46:49;;;;;;;9.27;3.40;;;;;;;;;;5061974;28;20119;-79
2022/10/01 02:49:15;;;;;;;15.07;4.00;;;;;;;;;;5057609;28;20021;-79
2022/10/01 02:51:49;;;;;;;13.23;3.75;;;;;;;;;;5062270;28;20059;-80
2022/10/01 02:54:22;;;;;;;8.90;3.90;;;;;;;;;;5055529;28;20019;-79
2022/10/01 02:59:33;;;;;;;14.15;4.25;;;;;;;;;;5065218;28;20035;-79
2022/10/01 03:01:59;;;;;;;13.60;3.40;;;;;;;;;;5059655;28;20028;-81
2022/10/01 03:04:25;;;;;;;8.00;3.67;;;;;;;;;;5059367;28;20027;-81
2022/10/01 03:06:52;;;;;;;9.68;4.10;;;;;;;;;;5053095;28;20043;-81
2022/10/01 03:09:18;;;;;;;12.95;4.07;;;;;;;;;;5050929;28;20464;-82
2022/10/01 03:11:44;;;;;;;8.40;4.32;;;;;;;;;;5056736;28;20559;-83
2022/10/01 03:14:10;;;;;;;14.27;4.72;;;;;;;;;;5050081;28;20021;-82
2022/10/01 03:16:37;;;;;;;10.77;4.15;;;;;;;;;;5056205;28;20040;-80
2022/10/01 03:19:03;;;;;;;11.60;4.07;;;;;;;;;;5049636;28;20035;-82
2022/10/01 03:21:29;;;;;;;8.60;3.30;;;;;;;;;;5052573;28;20043;-83
2022/10/01 03:23:55;;;;;;;7.97;4.00;;;;;;;;;;5053055;28;20098;-82
2022/10/01 03:26:21;;;;;;;7.85;3.67;;;;;;;;;;5035548;28;20760;-83
2022/10/01 03:28:47;;;;;;;8.48;3.95;;;;;;;;;;5053096;28;20025;-81
2022/10/01 03:31:13;;;;;;;14.60;4.15;;;;;;;;;;5052412;28;20059;-82
2022/10/01 03:33:40;;;;;;;12.20;4.07;;;;;;;;;;5055081;28;20396;-83
2022/10/01 03:36:06;;;;;;;19.35;4.75;;;;;;;;;;5053017;28;20491;-83
2022/10/01 03:38:32;;;;;;;7.68;4.25;;;;;;;;;;5057212;28;20063;-82
2022/10/01 03:40:58;;;;;;;8.63;4.28;;;;;;;;;;5053619;28;20074;-83
2022/10/01 03:43:27;;;;;;;7.32;3.85;;;;;;;;;;5055361;28;20028;-80
2022/10/01 03:45:53;;;;;;;10.85;3.83;;;;;;;;;;5059089;28;20079;-83
2022/10/01 03:48:20;;;;;;;8.68;4.03;;;;;;;;;;5052344;28;20106;-81
2022/10/01 03:50:59;;;;;;;9.77;3.67;;;;;;;;;;5060434;28;20036;-82
2022/10/01 03:53:26;;;;;;;12.07;4.07;;;;;;;;;;5053506;28;20079;-83
2022/10/01 03:55:53;;;;;;;9.18;3.40;;;;;;;;;;5059832;28;20036;-80
2022/10/01 03:58:19;;;;;;;11.95;3.78;;;;;;;;;;5052751;28;20035;-80
2022/10/01 04:00:47;;;;;;;9.95;3.80;;;;;;;;;;5055576;28;20020;-83
2022/10/01 04:03:13;;;;;;;13.27;4.07;;;;;;;;;;5055175;28;20515;-82
2022/10/01 04:05:40;;;;;;;7.15;3.40;;;;;;;;;;5055710;28;20094;-82
2022/10/01 04:08:06;;;;;;;9.73;4.30;;;;;;;;;;5056129;28;20032;-82
2022/10/01 04:10:32;;;;;;;8.40;4.13;;;;;;;;;;5041184;28;20028;-83
2022/10/01 04:12:58;;;;;;;4.63;4.10;;;;;;;;;;5055997;28;20024;-82
2022/10/01 04:15:24;;;;;;;10.60;4.22;;;;;;;;;;5057973;28;20033;-81
2022/10/01 04:17:51;;;;;;;9.98;4.30;;;;;;;;;;5061488;28;20138;-83
2022/10/01 04:20:17;;;;;;;11.95;4.13;;;;;;;;;;5062385;28;20117;-82
2022/10/01 04:22:44;;;;;;;7.72;3.72;;;;;;;;;;5064183;28;20048;-82
2022/10/01 04:25:11;;;;;;;9.23;4.20;;;;;;;;;;5064704;28;20052;-82
2022/10/01 04:27:38;;;;;;;9.40;4.18;;;;;;;;;;5064359;28;20032;-82
2022/10/01 04:30:05;;;;;;;8.45;4.10;;;;;;;;;;5064231;28;20021;-82
2022/10/01 04:32:31;;;;;;;9.93;4.60;;;;;;;;;;5062893;28;20369;-81
2022/10/01 04:34:58;;;;;;;8.65;4.10;;;;;;;;;;5061910;28;20242;-83
2022/10/01 04:37:26;;;;;;;8.23;4.20;;;;;;;;;;5050197;28;20070;-82
2022/10/01 04:39:53;;;;;;;8.70;3.67;;;;;;;;;;5061747;28;20028;-81
2022/10/01 04:42:19;;;;;;;9.43;4.03;;;;;;;;;;5061777;28;20052;-82
2022/10/01 04:44:45;;;;;;;16.38;5.70;;;;;;;;;;5060138;28;20028;-83
2022/10/01 04:47:11;;;;;;;15.55;7.55;;;;;;;;;;5046291;28;20037;-83
2022/10/01 04:49:38;;;;;;;16.75;9.63;;;;;;;;;;5062130;28;20033;-82
2022/10/01 04:52:04;;;;;;;12.98;7.57;;;;;;;;;;5061284;28;20024;-82
2022/10/01 04:54:31;;;;;;;12.63;7.28;;;;;;;;;;5062061;28;20032;-82
2022/10/01 04:56:57;;;;;;;16.40;7.68;;;;;;;;;;5061082;28;20044;-83
2022/10/01 04:59:24;;;;;;;12.00;7.40;;;;;;;;;;5059664;28;20093;-82
2022/10/01 05:01:50;;;;;;;16.95;9.00;;;;;;;;;;5061048;28;20436;-82
2022/10/01 05:04:17;;;;;;;14.27;10.00;;;;;;;;;;5061549;28;20151;-83
2022/10/01 05:06:43;;;;;;;10.30;6.75;;;;;;;;;;5061166;28;20024;-83
2022/10/01 05:09:09;;;;;;;12.70;6.40;;;;;;;;;;5059377;28;20021;-82
2022/10/01 05:11:36;;;;;;;8.05;4.15;;;;;;;;;;5058959;28;20105;-82
2022/10/01 05:14:02;;;;;;;8.65;3.92;;;;;;;;;;5061258;28;20028;-83
2022/10/01 05:16:28;;;;;;;11.70;3.60;;;;;;;;;;5061732;28;20556;-80
2022/10/01 05:18:55;;;;;;;7.53;4.05;;;;;;;;;;5061176;28;20068;-82
2022/10/01 05:21:21;;;;;;;7.30;3.70;;;;;;;;;;5060697;28;20021;-79
2022/10/01 05:23:47;;;;;;;7.25;3.42;;;;;;;;;;5061094;28;20032;-83
2022/10/01 05:26:13;;;;;;;5.43;2.80;;;;;;;;;;5059765;28;20028;-81
2022/10/01 05:28:43;;;;;;;8.95;3.08;;;;;;;;;;5060758;28;20197;-81
2022/10/01 05:31:09;;;;;;;4.75;2.83;;;;;;;;;;5043131;28;20043;-85
2022/10/01 05:33:35;;;;;;;6.15;2.60;;;;;;;;;;5035647;28;20274;-80
2022/10/01 05:36:03;;;;;;;7.85;2.78;;;;;;;;;;5052582;28;20109;-80
2022/10/01 05:38:30;;;;;;;7.18;2.83;;;;;;;;;;5061234;28;20035;-80
2022/10/01 05:40:56;;;;;;;10.35;4.05;;;;;;;;;;5063341;28;20023;-84
2022/10/01 05:43:25;;;;;;;7.30;3.70;;;;;;;;;;5063211;28;20017;-86
2022/10/01 05:45:52;;;;;;;8.18;3.63;;;;;;;;;;5042944;28;20029;-82
2022/10/01 05:48:18;;;;;;;8.93;3.47;;;;;;;;;;5062275;28;20056;-80
2022/10/01 05:50:45;;;;;;;10.00;4.25;;;;;;;;;;5061962;28;20114;-82
2022/10/01 05:53:12;;;;;;;8.65;2.97;;;;;;;;;;5037986;28;20103;-84
2022/10/01 05:55:39;;;;;;;12.25;3.65;;;;;;;;;;5044902;28;20035;-83
2022/10/01 05:58:06;;;;;;;13.18;3.33;;;;;;;;;;5060324;28;20036;-83
2022/10/01 06:00:33;;;;;;;10.70;3.55;;;;;;;;;;5062207;28;20070;-82
2022/10/01 06:03:00;;;;;;;15.88;3.85;;;;;;;;;;5044569;28;20071;-80
2022/10/01 06:05:26;;;;;;;9.68;3.60;;;;;;;;;;5061995;28;20488;-80
2022/10/01 06:07:52;;;;;;;10.82;3.30;;;;;;;;;;5059878;28;20025;-80
2022/10/01 06:10:20;;;;;;;12.43;3.47;;;;;;;;;;5060913;28;20044;-80
2022/10/01 06:12:47;;;;;;;11.50;3.58;;;;;;;;;;5060052;28;20021;-84
2022/10/01 06:15:13;;;;;;;12.15;3.90;;;;;;;;;;5044108;28;20029;-86
2022/10/01 06:17:44;;;;;;;11.73;3.90;;;;;;;;;;5044162;28;20459;-85
2022/10/01 06:20:14;;;;;;;12.85;3.50;;;;;;;;;;5058831;28;20021;-85
2022/10/01 06:22:41;;;;;;;18.35;4.80;;;;;;;;;;5061632;28;20025;-87
2022/10/01 06:25:09;;;;;;;14.80;3.53;;;;;;;;;;5062782;28;20028;-85
2022/10/01 06:27:35;;;;;;;19.15;3.92;;;;;;;;;;5061270;28;20020;-86
2022/10/01 06:30:01;;;;;;;10.77;3.03;;;;;;;;;;5059048;28;20033;-87
2022/10/01 06:32:27;;;;;;;16.52;4.07;;;;;;;;;;5062348;28;20044;-88
2022/10/01 06:34:53;;;;;;;10.18;3.60;;;;;;;;;;5061131;28;20377;-86
2022/10/01 06:37:19;;;;;;;11.90;4.00;;;;;;;;;;5062526;28;20028;-88
2022/10/01 06:39:46;;;;;;;14.52;3.75;;;;;;;;;;5048431;28;20013;-84
2022/10/01 06:42:12;;;;;;;12.65;3.78;;;;;;;;;;5059642;28;20025;-84
2022/10/01 06:44:38;;;;;;;12.80;3.72;;;;;;;;;;5033517;28;20424;-86
2022/10/01 06:47:05;;;;;;;17.55;3.05;;;;;;;;;;5036660;28;20025;-83
2022/10/01 06:49:31;;;;;;;10.05;3.20;;;;;;;;;;5035692;28;20032;-89
2022/10/01 06:54:42;;;;;;;12.98;3.33;;;;;;;;;;5047397;28;20429;-86
2022/10/01 06:57:09;;;;;;;15.07;3.00;;;;;;;;;;5047777;28;20060;-88
2022/10/01 06:59:38;;;;;;;10.45;3.47;;;;;;;;;;5041686;28;20250;-87
2022/10/01 07:02:04;;;;;;;9.80;3.05;;;;;;;;;;5043350;28;20036;-86
2022/10/01 07:04:31;;;;;;;8.77;3.05;;;;;;;;;;5052053;28;20024;-87
2022/10/01 07:06:57;;;;;;;9.88;2.95;;;;;;;;;;5055713;28;20025;-87
2022/10/01 07:09:24;;;;;;;15.88;4.32;;;;;;;;;;5052956;28;20027;-83
2022/10/01 07:11:51;;;;;;;11.40;3.35;;;;;;;;;;5048228;28;20028;-84
2022/10/01 07:14:17;;;;;;;10.63;3.80;;;;;;;;;;5046590;28;20017;-87
2022/10/01 07:16:43;;;;;;;16.83;3.67;;;;;;;;;;5034338;28;20029;-85
2022/10/01 07:19:10;;;;;;;10.88;3.50;;;;;;;;;;5042729;28;20028;-88
2022/10/01 07:21:37;;;;;;;15.25;3.53;;;;;;;;;;5042476;28;20036;-86
2022/10/01 07:24:03;;;;;;;17.45;4.18;;;;;;;;;;5044301;28;20017;-86
2022/10/01 07:26:29;;;;;;;11.50;3.50;;;;;;;;;;5043708;28;20031;-87
2022/10/01 07:28:56;;;;;;;10.90;3.78;;;;;;;;;;5045751;28;20629;-86
2022/10/01 07:31:23;;;;;;;9.57;3.28;;;;;;;;;;5042888;28;20498;-88
2022/10/01 07:33:49;;;;;;;13.38;3.22;;;;;;;;;;5059426;28;20020;-85
2022/10/01 07:36:15;;;;;;;11.07;3.63;;;;;;;;;;5040253;28;20041;-86
2022/10/01 07:38:43;;;;;;;12.52;3.15;;;;;;;;;;5060174;28;20380;-85
2022/10/01 07:41:10;;;;;;;10.20;3.45;;;;;;;;;;5060886;28;20041;-86
2022/10/01 07:43:38;;;;;;;12.55;3.33;;;;;;;;;;5059654;28;20023;-86
2022/10/01 07:46:05;;;;;;;10.68;2.88;;;;;;;;;;5060032;28;20082;-84
2022/10/01 07:48:32;;;;;;;11.00;3.20;;;;;;;;;;5057638;28;20052;-87
2022/10/01 07:50:58;;;;;;;11.82;3.45;;;;;;;;;;5056572;28;20040;-85
2022/10/01 07:53:24;;;;;;;10.65;3.08;;;;;;;;;;5054427;28;20021;-84
2022/10/01 07:55:50;;;;;;;15.00;3.38;;;;;;;;;;5042703;28;20615;-85
2022/10/01 07:58:17;;;;;;;15.48;4.53;;;;;;;;;;5060918;28;20020;-86
2022/10/01 08:00:43;;;;;;;13.00;3.60;;;;;;;;;;5060538;28;20048;-86
2022/10/01 08:03:13;;;;;;;12.57;3.03;;;;;;;;;;5059761;28;20035;-85
2022/10/01 08:05:40;;;;;;;9.80;2.63;;;;;;;;;;5061228;28;20013;-87
2022/10/01 08:08:07;;;;;;;13.77;2.78;;;;;;;;;;5059956;28;20032;-84
2022/10/01 08:10:35;;;;;;;14.82;2.88;;;;;;;;;;5052500;28;20017;-86
2022/10/01 08:13:15;;;;;;;14.27;3.33;;;;;;;;;;5060330;28;20032;-86
2022/10/01 08:15:42;;;;;;;9.18;2.88;;;;;;;;;;5047590;28;20918;-87
2022/10/01 08:18:09;;;;;;;10.65;2.78;;;;;;;;;;5031502;28;20036;-87
2022/10/01 08:20:36;;;;;;;10.70;2.95;;;;;;;;;;5038946;28;20523;-87
2022/10/01 08:23:06;;;;;;;7.90;2.55;;;;;;;;;;5046676;28;20024;-88
2022/10/01 08:25:32;;;;;;;11.73;2.70;;;;;;;;;;5065242;28;20028;-87
2022/10/01 08:28:01;;;;;;;8.68;2.47;;;;;;;;;;5046076;28;20134;-87
2022/10/01 08:30:28;;;;;;;8.55;2.30;;;;;;;;;;5043707;28;20130;-87
2022/10/01 08:32:55;;;;;;;6.60;2.15;;;;;;;;;;5045384;28;20029;-86
2022/10/01 08:35:22;;;;;;;9.45;2.30;;;;;;;;;;5059342;28;20021;-84
2022/10/01 08:37:48;;;;;;;13.30;2.80;;;;;;;;;;5036399;28;20037;-87
2022/10/01 08:40:14;;;;;;;7.68;2.25;;;;;;;;;;5061853;28;20104;-85
2022/10/01 08:42:48;;;;;;;8.75;2.90;;;;;;;;;;5045365;28;20025;-87
2022/10/01 08:45:17;;;;;;;8.98;3.10;;;;;;;;;;5047297;28;20052;-87
2022/10/01 08:47:50;;;;;;;5.47;1.92;;;;;;;;;;5046385;28;20041;-88
2022/10/01 08:50:23;;;;;;;10.25;2.88;;;;;;;;;;5064232;28;20074;-87
2022/10/01 08:52:52;;;;;;;8.93;2.60;;;;;;;;;;5063566;28;20029;-87
2022/10/01 08:55:20;;;;;;;6.60;1.90;;;;;;;;;;5064731;28;20489;-88
2022/10/01 08:57:49;;;;;;;5.45;1.90;;;;;;;;;;5063978;28;20033;-87
2022/10/01 09:00:16;;;;;;;9.30;2.20;;;;;;;;;;5046184;28;20027;-87
2022/10/01 09:02:44;;;;;;;4.97;1.90;;;;;;;;;;5062628;28;20013;-86
2022/10/01 09:05:21;;;;;;;8.43;2.03;;;;;;;;;;5046052;28;20082;-87
2022/10/01 09:08:01;;;;;;;9.73;2.33;;;;;;;;;;5055597;28;20024;-85
2022/10/01 09:10:41;;;;;;;7.90;2.47;;;;;;;;;;5061732;28;20048;-85
2022/10/01 09:13:26;;;;;;;5.90;2.25;;;;;;;;;;5045759;28;20121;-86
2022/10/01 09:16:00;;;;;;;5.68;1.95;;;;;;;;;;5045613;28;20385;-87
2022/10/01 09:18:39;;;;;;;7.97;1.95;;;;;;;;;;5044553;28;20040;-86
2022/10/01 09:21:11;;;;;;;7.50;1.95;;;;;;;;;;5060061;28;20408;-86
2022/10/01 09:23:47;;;;;;;11.63;2.13;;;;;;;;;;5043254;28;20030;-86
2022/10/01 09:26:13;;;;;;;6.05;1.70;;;;;;;;;;5043846;28;20017;-86
2022/10/01 09:28:40;;;;;;;6.65;1.90;;;;;;;;;;5045792;28;20055;-85
2022/10/01 09:31:13;;;;;;;8.73;2.20;;;;;;;;;;5045811;28;20484;-84
2022/10/01 09:33:41;;;;;;;8.30;1.70;;;;;;;;;;5043789;28;20025;-85
2022/10/01 09:36:16;;;;;;;7.05;2.28;;;;;;;;;;5045956;28;20025;-86
2022/10/01 09:38:43;;;;;;;9.75;1.90;;;;;;;;;;5061868;28;20028;-87
2022/10/01 09:41:10;;;;;;;5.38;1.85;;;;;;;;;;5064241;28;20389;-86
2022/10/01 09:43:38;;;;;;;4.90;2.00;;;;;;;;;;5045332;28;20391;-87
2022/10/01 09:46:12;;;;;;;5.20;1.50;;;;;;;;;;5064339;28;20059;-88
2022/10/01 09:48:59;;;;;;;6.60;1.75;;;;;;;;;;5063627;28;20135;-87
2022/10/01 09:51:30;;;;;;;8.88;2.25;;;;;;;;;;5061931;28;20205;-83
2022/10/01 09:54:11;;;;;;;7.15;1.63;;;;;;;;;;5062863;28;20135;-86
2022/10/01 09:56:48;;;;;;;6.72;1.80;;;;;;;;;;5061631;28;20435;-87
2022/10/01 09:59:21;;;;;;;6.35;1.77;;;;;;;;;;5053930;28;20024;-86
2022/10/01 10:01:53;;;;;;;5.38;1.50;;;;;;;;;;5062008;28;20028;-86
2022/10/01 10:04:22;;;;;;;5.50;1.67;;;;;;;;;;5061559;28;20016;-84
2022/10/01 10:06:48;;;;;;;7.35;2.00;;;;;;;;;;5060507;28;20557;-85
2022/10/01 10:09:15;;;;;;;8.45;1.88;;;;;;;;;;5043887;28;20012;-85
2022/10/01 10:11:41;;;;;;;9.07;2.25;;;;;;;;;;5044060;28;20059;-85
2022/10/01 10:14:14;;;;;;;10.35;2.40;;;;;;;;;;5061141;28;20035;-83
2022/10/01 10:16:45;;;;;;;4.72;1.80;;;;;;;;;;5031215;28;20028;-84
2022/10/01 10:19:23;;;;;;;14.68;2.30;;;;;;;;;;5062295;28;20037;-82
2022/10/01 10:21:59;;;;;;;9.75;2.08;;;;;;;;;;5031751;28;20119;-84
2022/10/01 10:24:27;;;;;;;9.40;2.38;;;;;;;;;;5060428;28;20021;-84
2022/10/01 10:26:58;;;;;;;7.22;2.20;;;;;;;;;;5032174;28;20119;-88
2022/10/01 10:29:26;;;;;;;15.82;2.58;;;;;;;;;;5046024;28;20048;-87
2022/10/01 10:31:54;;;;;;;8.23;2.25;;;;;;;;;;5063872;28;20028;-88
2022/10/01 10:34:30;;;;;;;9.50;2.58;;;;;;;;;;5063196;28;20012;-87
2022/10/01 10:36:57;;;;;;;11.60;2.33;;;;;;;;;;5056590;28;20033;-89
2022/10/01 10:39:28;;;;;;;11.00;2.15;;;;;;;;;;5037312;28;20571;-88
2022/10/01 10:41:55;;;;;;;11.93;2.53;;;;;;;;;;5044526;28;20037;-86
2022/10/01 10:44:24;;;;;;;7.35;1.77;;;;;;;;;;5061738;28;20031;-86
2022/10/01 10:46:51;;;;;;;12.95;2.60;;;;;;;;;;5044203;28;20032;-83
2022/10/01 10:49:28;;;;;;;9.38;2.50;;;;;;;;;;5044170;28;20114;-87
2022/10/01 10:51:55;;;;;;;12.25;2.47;;;;;;;;;;5043086;28;20114;-86
2022/10/01 10:54:30;;;;;;;13.30;2.30;;;;;;;;;;5062369;28;20038;-85
2022/10/01 10:57:01;;;;;;;9.57;2.25;;;;;;;;;;5061251;28;20032;-86
2022/10/01 10:59:28;;;;;;;9.63;3.37;;;;;;;;;;5043667;28;20051;-87
2022/10/01 11:01:54;;;;;;;6.10;1.92;;;;;;;;;;5060735;28;20253;-84
2022/10/01 11:04:41;;;;;;;8.25;2.22;;;;;;;;;;5044140;28;20638;-86
2022/10/01 11:07:07;;;;;;;8.95;2.45;;;;;;;;;;5061860;28;20097;-86
2022/10/01 11:09:42;;;;;;;14.32;2.45;;;;;;;;;;5043508;28;20338;-85
2022/10/01 11:12:23;;;;;;;13.00;2.70;;;;;;;;;;5061255;28;20028;-86
2022/10/01 11:15:22;;;;;;;12.35;2.28;;;;;;;;;;5043492;28;20032;-86
2022/10/01 11:17:55;;;;;;;13.60;3.03;;;;;;;;;;5010864;28;20124;-87
2022/10/01 11:20:38;;;;;;;10.85;2.55;;;;;;;;;;5045156;28;20185;-88
2022/10/01 11:23:10;;;;;;;8.35;2.20;;;;;;;;;;5041234;28;20024;-86
2022/10/01 11:25:36;;;;;;;14.57;3.15;;;;;;;;;;5061936;28;20112;-85
2022/10/01 11:28:11;;;;;;;5.50;2.00;;;;;;;;;;5058139;28;20017;-85
2022/10/01 11:30:53;;;;;;;7.85;2.13;;;;;;;;;;5061503;28;20309;-85
2022/10/01 11:33:19;;;;;;;;;;;;;;;;;;5062124;28;20025;-85
2022/10/01 11:36:04;;;;;;;16.73;2.30;;;;;;;;;;5059720;28;19939;-82
2022/10/01 11:38:37;;;;;;;17.13;2.67;;;;;;;;;;5061432;28;20247;-85
2022/10/01 11:41:06;;;;;;;7.70;2.67;;;;;;;;;;5043298;28;20020;-84
2022/10/01 11:43:35;;;;;;;12.02;2.72;;;;;;;;;;5060894;28;20389;-83
2022/10/01 11:46:15;;;;;;;10.75;2.70;;;;;;;;;;5061362;28;20046;-84
2022/10/01 11:48:45;;;;;;;7.63;1.75;;;;;;;;;;5059773;28;20075;-85
2022/10/01 11:51:19;;;;;;;10.60;2.47;;;;;;;;;;5061776;28;20025;-86
2022/10/01 11:53:49;;;;;;;9.75;2.83;;;;;;;;;;5060539;28;20028;-85
2022/10/01 11:59:16;;;;;;;14.00;2.83;;;;;;;;;;5065271;28;20145;-84
2022/10/01 12:01:49;;;;;;;15.25;2.45;;;;;;;;;;5064788;28;20131;-85
2022/10/01 12:04:34;;;;;;;8.73;2.35;;;;;;;;;;5064914;28;20020;-86
2022/10/01 12:07:06;;;;;;;21.10;2.63;;;;;;;;;;5062900;28;20033;-86
2022/10/01 12:09:35;;;;;;;8.85;1.95;;;;;;;;;;5064703;28;20016;-86
2022/10/01 12:12:05;;;;;;;12.43;2.13;;;;;;;;;;5065038;28;20025;-87
2022/10/01 12:14:48;;;;;;;12.73;2.95;;;;;;;;;;5065104;28;20030;-86
2022/10/01 12:17:21;;;;;;;9.02;1.90;;;;;;;;;;5064498;28;20428;-86
2022/10/01 12:19:49;;;;;;;13.75;3.35;;;;;;;;;;5058344;28;20020;-83
2022/10/01 12:22:27;;;;;;;7.07;2.15;;;;;;;;;;5061839;28;20024;-84
2022/10/01 12:24:53;;;;;;;6.80;2.20;;;;;;;;;;5061372;28;20342;-83
2022/10/01 12:27:25;;;;;;;9.05;1.88;;;;;;;;;;5057158;28;20029;-86
2022/10/01 12:29:56;;;;;;;6.45;1.98;;;;;;;;;;5059781;28;20024;-87
2022/10/01 12:32:22;;;;;;;10.32;2.15;;;;;;;;;;5058866;28;20495;-84
2022/10/01 12:34:48;;;;;;;7.72;1.83;;;;;;;;;;5056546;28;20016;-86
2022/10/01 12:37:32;;;;;;;9.68;1.77;;;;;;;;;;5057120;28;20151;-86
2022/10/01 12:40:07;;;;;;;8.85;1.95;;;;;;;;;;5053431;28;20016;-86
2022/10/01 12:42:49;;;;;;;11.48;2.25;;;;;;;;;;5058636;28;20027;-85
2022/10/01 12:45:21;;;;;;;12.10;1.90;;;;;;;;;;5052904;28;20024;-84
2022/10/01 12:47:50;;;;;;;9.48;2.10;;;;;;;;;;5053513;28;20048;-87
2022/10/01 12:50:22;;;;;;;6.25;1.48;;;;;;;;;;5053631;28;20020;-85
2022/10/01 12:52:48;;;;;;;5.85;1.88;;;;;;;;;;5059557;28;20504;-85
2022/10/01 12:55:33;;;;;;;6.10;1.80;;;;;;;;;;5062013;28;20223;-85
2022/10/01 12:58:02;;;;;;;9.95;1.80;;;;;;;;;;5058608;28;20484;-85
2022/10/01 13:00:33;;;;;;;8.65;2.08;;;;;;;;;;5059051;28;20020;-85
2022/10/01 13:03:22;;;;;;;5.85;1.27;;;;;;;;;;5054321;28;20403;-85
2022/10/01 13:05:52;;;;;;;9.80;1.42;;;;;;;;;;5048586;28;20024;-83
2022/10/01 13:08:18;;;;;;;7.70;1.67;;;;;;;;;;5061326;28;20331;-83
2022/10/01 13:11:05;;;;;;;6.82;1.95;;;;;;;;;;5056546;28;20056;-85
2022/10/01 13:13:33;;;;;;;6.95;1.45;;;;;;;;;;5059255;28;20028;-86
2022/10/01 13:16:06;;;;;;;9.88;1.60;;;;;;;;;;5060200;28;20016;-83
2022/10/01 13:18:50;;;;;;;11.93;1.67;;;;;;;;;;5058846;28;20017;-85
2022/10/01 13:21:40;;;;;;;7.72;1.80;;;;;;;;;;5054470;28;20043;-87
2022/10/01 13:24:26;;;;;;;11.45;2.38;;;;;;;;;;5027840;28;20433;-82
2022/10/01 13:27:10;;;;;;;7.15;1.35;;;;;;;;;;5060583;28;20492;-84
2022/10/01 13:29:39;;;;;;;5.70;1.55;;;;;;;;;;5055841;28;20460;-86
2022/10/01 13:32:24;;;;;;;5.18;1.45;;;;;;;;;;5057134;28;20028;-81
2022/10/01 13:34:51;;;;;;;6.72;1.60;;;;;;;;;;5054598;28;20477;-85
2022/10/01 13:37:17;;;;;;;6.25;1.77;;;;;;;;;;5055629;28;20035;-86
2022/10/01 13:39:44;;;;;;;6.60;1.70;;;;;;;;;;5056970;28;20027;-86
2022/10/01 13:42:19;;;;;;;5.85;1.40;;;;;;;;;;5039635;28;20050;-84
2022/10/01 13:44:51;;;;;;;9.60;1.23;;;;;;;;;;5050311;28;20028;-87
2022/10/01 13:47:19;;;;;;;6.05;1.73;;;;;;;;;;5057741;28;20041;-86
2022/10/01 13:49:52;;;;;;;8.18;1.88;;;;;;;;;;5055828;28;20063;-86
2022/10/01 13:52:19;;;;;;;10.60;2.15;;;;;;;;;;5052409;28;20025;-81
2022/10/01 13:54:47;;;;;;;12.93;2.15;;;;;;;;;;5053364;28;20461;-81
2022/10/01 13:57:33;;;;;;;8.63;2.05;;;;;;;;;;5055970;28;20040;-87
2022/10/01 14:00:02;;;;;;;7.85;1.27;;;;;;;;;;5060352;28;20009;-87
2022/10/01 14:02:38;;;;;;;7.15;1.40;;;;;;;;;;5058199;28;20017;-84
2022/10/01 14:05:25;;;;;;;5.55;1.40;;;;;;;;;;5053488;28;20029;-88
2022/10/01 14:07:55;;;;;;;6.07;1.50;;;;;;;;;;5042905;28;20086;-87
2022/10/01 14:10:22;;;;;;;5.03;1.48;;;;;;;;;;5060434;28;20021;-87
2022/10/01 14:18:24;;;;;;;3.80;1.00;;;;;;;;;;5056214;28;20059;-85
2022/10/01 14:20:50;;;;;;;6.80;1.10;;;;;;;;;;5039975;28;20458;-87
2022/10/01 14:23:19;;;;;;;7.47;1.70;;;;;;;;;;5054161;28;20484;-85
2022/10/01 14:26:04;;;;;;;6.50;1.60;;;;;;;;;;5057625;28;20206;-84
2022/10/01 14:28:41;;;;;;;5.10;1.30;;;;;;;;;;5059831;28;20024;-83
2022/10/01 14:31:14;;;;;;;8.13;2.05;;;;;;;;;;5053019;28;20036;-83
2022/10/01 14:33:58;;;;;;;7.32;1.58;;;;;;;;;;5057748;28;20054;-85
2022/10/01 14:36:31;;;;;;;4.43;1.10;;;;;;;;;;5058303;28;20410;-82
2022/10/01 14:39:15;;;;;;;6.50;1.70;;;;;;;;;;5055534;28;20056;-84
2022/10/01 14:41:42;;;;;;;5.47;1.30;;;;;;;;;;5061031;28;20442;-85
2022/10/01 14:44:23;;;;;;;7.15;1.48;;;;;;;;;;5058981;28;20023;-85
2022/10/01 14:46:53;;;;;;;6.22;1.33;;;;;;;;;;5038074;28;20665;-85
2022/10/01 14:49:20;;;;;;;4.82;1.13;;;;;;;;;;5053399;28;20497;-83
2022/10/01 14:52:12;;;;;;;8.30;1.80;;;;;;;;;;5056904;28;20024;-83
2022/10/01 14:54:45;;;;;;;4.88;1.10;;;;;;;;;;5049242;28;20043;-84
2022/10/01 14:57:18;;;;;;;3.22;1.20;;;;;;;;;;5059901;28;20499;-85
2022/10/01 14:59:46;;;;;;;4.68;1.30;;;;;;;;;;5037210;28;20033;-85
2022/10/01 15:02:17;;;;;;;9.25;1.23;;;;;;;;;;5054343;28;20469;-85
2022/10/01 15:04:49;;;;;;;8.05;1.30;;;;;;;;;;5057309;28;20128;-85
2022/10/01 15:07:16;;;;;;;7.40;1.35;;;;;;;;;;5055034;28;20020;-83
2022/10/01 15:09:43;;;;;;;6.93;1.50;;;;;;;;;;5054175;28;20035;-84